This is the latest recevied weather packets stored in our database for station/object OM2RC-6. If no packets are shown the sender has not sent any weather packets the latest 10 day(s).
| Time | Temp. | Humidity | Pressure | Rain* | Wind** | Luminosity | Snow |
|---|---|---|---|---|---|---|---|
| 1777727146 | 25° C | 32% | 1022.7 hPa | - | - | - | - |
| 1777726541 | 26.11° C | 31% | 1022.9 hPa | - | - | - | - |
| 1777726240 | 23.89° C | 33% | 1023.1 hPa | - | - | - | - |
| 1777725939 | 23.89° C | 34% | 1023.1 hPa | - | - | - | - |
| 1777725638 | 25.56° C | 32% | 1023.1 hPa | - | - | - | - |
| 1777725337 | 25° C | 33% | 1023.2 hPa | - | - | - | - |
| 1777725037 | 24.44° C | 34% | 1023.2 hPa | - | - | - | - |
| 1777724435 | 25.56° C | 33% | 1023.3 hPa | - | - | - | - |
| 1777724134 | 24.44° C | 37% | 1023.4 hPa | - | - | - | - |
| 1777723833 | 23.89° C | 37% | 1023.6 hPa | - | - | - | - |
| 1777723532 | 24.44° C | 36% | 1023.6 hPa | - | - | - | - |
| 1777722930 | 22.78° C | 37% | 1023.8 hPa | - | - | - | - |
| 1777722629 | 23.33° C | 36% | 1023.8 hPa | - | - | - | - |
| 1777722328 | 22.78° C | 37% | 1023.8 hPa | - | - | - | - |
| 1777722027 | 25° C | 34% | 1023.8 hPa | - | - | - | - |
| 1777721726 | 25.56° C | 35% | 1023.9 hPa | - | - | - | - |
| 1777721424 | 22.78° C | 39% | 1024.1 hPa | - | - | - | - |
| 1777721123 | 22.78° C | 39% | 1024 hPa | - | - | - | - |
| 1777720822 | 22.78° C | 39% | 1024.1 hPa | - | - | - | - |
| 1777720521 | 23.33° C | 38% | 1024.2 hPa | - | - | - | - |
| 1777720219 | 25° C | 36% | 1024.3 hPa | - | - | - | - |
| 1777719917 | 23.33° C | 40% | 1024.3 hPa | - | - | - | - |
| 1777719315 | 24.44° C | 37% | 1024.5 hPa | - | - | - | - |
| 1777719014 | 24.44° C | 37% | 1024.6 hPa | - | - | - | - |
| 1777718714 | 25° C | 37% | 1024.5 hPa | - | - | - | - |
* Rain since midnight (hover to see other rain measurements)
** Current wind speed in m/s (hover to see current wind gust speed)